Airfield :
LOGIN :

Register | Disclaimer

   EN    FR    IT 

 










Legend :    VFR   Marginal VFR   IFR   Intensive IFR   Very Intensive IFR
Visi :
Ceiling :
>= 8 km
>= 3000ft
5 to 8 km
1000 to 3000 ft
1500m to 5 km
500 to 1000 ft
800 to 1500m
200 to 500 ft
< 800m
< 200 ft
Symbols :   Thunderstorms  Fog  Heavy snow  Heavy precipitations  Wind > 20 kt
SIGMETs :     Misc.  Thunderstorms  Icing  Turbulence  Mountain Waves  Volcanic Ashes






- Airport Elevation : 1475 ft


LSZC - Buochs Stans

CURRENT METAR :
  • 272120Z AUTO 25016G26KT 230V290 9999 -DZ FEW042 BKN048 BKN055 05/M02 Q1011

EXPIRED METARs :
  • 272050Z AUTO 25020G31KT 9999 SCT050 SCT060 06/M04 Q1009
  • 272020Z AUTO 26019G40KT 220V300 9999 SCT050 07/M04 Q1008
  • 271950Z AUTO 24025G41KT 9999 BKN050 07/M03 Q1007
  • 271920Z AUTO 26022G33KT 230V290 9999 -RA BKN048 08/M01 Q1006
  • 271850Z AUTO 27023G43KT 230V310 9999 RA FEW039 BKN044 BKN050 08/00 Q1004

TAF TAF LSZC
Valid from the 27 at 15:00 until the 28 at 00:00 UTC


271425Z 2715/2724 VRB03KT 4200 -SN FEW004 BKN015
TEMPO 2716/2720 8000 SHRA
TEMPO 2716/2724 24015G35KT
TEMPO 2720/2724 0500 +SHSN VV003



MET'MAP, your aeronautical weather chart ! - Copyright ORBIFLY December 2007 - Disclaimer

ORBIFLY MET'MAP TEAM :

Programming & Development : Alexandra Zaïnal
Concept & original design : Baudouin d'Aumeries
Assistance for programming : Marc-Olivier Méhu
Technical & hardware support : Manuel Goepfert

Contact : metmap@orbifly.com




SOURCES & CREDITS :

   NOAA